Time;durP1;ratioP1;P1;durP2;ratioP2;P2;SDS_P1;SDS_P2;PMS_P1;PMS_P2;Temp;Humidity;BMP_temperature;BMP_pressure;BME280_temperature;BME280_humidity;BME280_pressure;Samples;Min_cycle;Max_cycle;Signal;HPM_P1;HPM_P2
2023/10/04 00:00:59;;;;;;;10.13;1.90;;;;;;;;;;4717712;30;20053;-85
2023/10/04 00:03:28;;;;;;;9.98;2.28;;;;;;;;;;4718121;30;20093;-84
2023/10/04 00:05:54;;;;;;;7.05;2.15;;;;;;;;;;4732754;30;20049;-85
2023/10/04 00:08:23;;;;;;;8.15;2.33;;;;;;;;;;4676311;30;20115;-92
2023/10/04 00:10:50;;;;;;;13.00;3.03;;;;;;;;;;4717375;30;20111;-88
2023/10/04 00:13:16;;;;;;;12.73;2.65;;;;;;;;;;4706153;30;20090;-91
2023/10/04 00:15:42;;;;;;;10.93;2.60;;;;;;;;;;4736646;30;20061;-92
2023/10/04 00:18:10;;;;;;;18.02;3.67;;;;;;;;;;4721235;30;20064;-86
2023/10/04 00:20:36;;;;;;;9.30;3.42;;;;;;;;;;4722290;30;20057;-90
2023/10/04 00:23:04;;;;;;;10.88;2.38;;;;;;;;;;4702964;30;20057;-87
2023/10/04 00:25:31;;;;;;;13.50;2.63;;;;;;;;;;4718163;30;20049;-88
2023/10/04 00:27:57;;;;;;;12.23;2.97;;;;;;;;;;4702215;30;20057;-87
2023/10/04 00:30:26;;;;;;;10.50;2.08;;;;;;;;;;4729637;30;20378;-84
2023/10/04 00:32:53;;;;;;;10.65;3.05;;;;;;;;;;4740174;30;20052;-85
2023/10/04 00:35:20;;;;;;;5.72;1.80;;;;;;;;;;4710357;30;20059;-86
2023/10/04 00:37:51;;;;;;;11.40;3.00;;;;;;;;;;4735287;30;20056;-86
2023/10/04 00:40:21;;;;;;;8.75;2.58;;;;;;;;;;4697917;30;20053;-91
2023/10/04 00:42:51;;;;;;;7.40;2.90;;;;;;;;;;4721450;30;20070;-86
2023/10/04 00:45:19;;;;;;;15.85;2.25;;;;;;;;;;4721185;30;20056;-90
2023/10/04 00:47:47;;;;;;;12.38;2.95;;;;;;;;;;4721545;30;20059;-90
2023/10/04 00:50:22;;;;;;;10.70;2.40;;;;;;;;;;4735959;30;20161;-87
2023/10/04 00:53:13;;;;;;;10.30;2.65;;;13.20;1.00;;;;;;4726494;30;20520;-95
2023/10/04 00:55:42;;;;;;;13.98;2.55;;;;;;;;;;4694359;30;20056;-95
2023/10/04 00:58:09;;;;;;;11.45;2.50;;;;;;;;;;4690629;30;20057;-92
2023/10/04 01:00:39;;;;;;;10.73;2.40;;;;;;;;;;4689854;30;20522;-95
2023/10/04 01:03:07;;;;;;;11.30;2.65;;;;;;;;;;4716521;30;20084;-95
2023/10/04 01:05:38;;;;;;;13.93;2.67;;;;;;;;;;4721903;30;20102;-95
2023/10/04 01:08:04;;;;;;;9.57;2.33;;;;;;;;;;4722200;30;20056;-95
2023/10/04 01:10:33;;;;;;;11.70;2.90;;;;;;;;;;4737469;30;20056;-96
2023/10/04 01:13:05;;;;;;;4.65;1.77;;;;;;;;;;4705195;30;20518;-95
2023/10/04 01:15:32;;;;;;;9.35;2.30;;;;;;;;;;4736602;30;20436;-95
2023/10/04 01:18:02;;;;;;;8.95;2.92;;;;;;;;;;4738297;30;20072;-95
2023/10/04 01:20:30;;;;;;;8.95;2.65;;;;;;;;;;4722967;30;20083;-96
2023/10/04 01:23:05;;;;;;;10.18;3.00;;;;;;;;;;4696342;30;20049;-95
2023/10/04 01:25:32;;;;;;;7.55;2.47;;;;;;;;;;4705037;30;20072;-94
2023/10/04 01:27:59;;;;;;;7.75;1.88;;;;;;;;;;4703733;30;20064;-94
2023/10/04 01:30:26;;;;;;;7.93;2.08;;;;;;;;;;4719716;30;20146;-95
2023/10/04 01:36:03;;;;;;;9.13;2.90;;;;;;;;;;4693483;30;20522;-94
2023/10/04 01:38:32;;;;;;;13.88;2.38;;;;;;;;;;4689887;30;20095;-94
2023/10/04 01:40:58;;;;;;;9.20;2.35;;;;;;;;;;4719472;30;20057;-94
2023/10/04 01:43:25;;;;;;;13.38;2.97;;;;;;;;;;4708660;30;20055;-94
2023/10/04 01:45:52;;;;;;;8.60;2.33;;;;;;;;;;4694090;30;20427;-95
2023/10/04 01:48:19;;;;;;;11.07;3.33;;;;;;;;;;4692848;30;20052;-94
2023/10/04 01:50:48;;;;;;;7.65;2.75;;;;;;;;;;4693119;30;20052;-94
2023/10/04 01:53:15;;;;;;;9.20;2.08;;;;;;;;;;4713669;30;20048;-93
2023/10/04 01:55:41;;;;;;;9.23;2.40;;;;;;;;;;4725442;30;20079;-93
2023/10/04 01:58:08;;;;;;;10.27;2.53;;;;;;;;;;4709123;30;20053;-95
2023/10/04 02:00:34;;;;;;;8.48;2.60;;;;;;;;;;4692771;30;20055;-95
2023/10/04 02:03:03;;;;;;;7.55;2.55;;;;;;;;;;4707327;30;20114;-93
2023/10/04 02:05:37;;;;;;;9.75;2.58;;;;;;;;;;4693212;30;20049;-93
2023/10/04 02:08:07;;;;;;;13.90;3.22;;;;;;;;;;4707149;30;20099;-94
2023/10/04 02:10:33;;;;;;;8.98;2.40;;;;;;;;;;4692458;30;20100;-93
2023/10/04 02:12:59;;;;;;;11.80;3.05;;;;;;;;;;4691270;30;20061;-96
2023/10/04 02:15:25;;;;;;;14.05;2.58;;;;;;;;;;4690994;30;20136;-94
2023/10/04 02:17:53;;;;;;;10.68;2.63;;;;;;;;;;4676764;30;20146;-94
2023/10/04 02:20:23;;;;;;;5.40;2.70;;;;;;;;;;4691299;30;20060;-96
2023/10/04 02:22:50;;;;;;;9.00;2.92;;;;;;;;;;4692119;30;20107;-96
2023/10/04 02:25:17;;;;;;;12.68;3.65;;;;;;;;;;4708626;30;20080;-96
2023/10/04 02:27:49;;;;;;;13.27;3.13;;;;;;;;;;4724710;30;20087;-95
2023/10/04 02:30:26;;;;;;;9.30;2.28;;;;;;;;;;4724715;30;20068;-96
2023/10/04 02:32:57;;;;;;;12.23;2.50;;;;;;;;;;4704886;30;20049;-96
2023/10/04 02:35:33;;;;;;;10.73;2.33;;;;;;;;;;4691941;30;20455;-95
2023/10/04 02:38:00;;;;;;;10.50;2.90;;;;;;;;;;4706070;30;20061;-95
2023/10/04 02:40:27;;;;;;;8.02;2.38;;;;;;;;;;4721839;30;20053;-95
2023/10/04 02:42:55;;;;;;;17.02;3.75;;;;;;;;;;4710816;30;20087;-95
2023/10/04 02:45:22;;;;;;;12.88;3.78;;;;;;;;;;4738672;30;20057;-96
2023/10/04 02:47:49;;;;;;;8.75;2.80;;;;;;;;;;4738178;30;20060;-95
2023/10/04 02:50:19;;;;;;;5.25;2.28;;;;;;;;;;4722786;30;20057;-95
2023/10/04 02:52:46;;;;;;;10.50;2.20;;;;;;;;;;4722887;30;20559;-95
2023/10/04 02:55:16;;;;;;;15.88;3.28;;;;;;;;;;4723097;30;20048;-96
2023/10/04 02:57:42;;;;;;;9.52;3.05;;;;;;;;;;4722510;30;20060;-95
2023/10/04 03:00:15;;;;;;;9.85;3.03;;;;;;;;;;4737083;30;20056;-95
2023/10/04 03:02:42;;;;;;;6.55;2.25;;;;;;;;;;4705093;30;20064;-96
2023/10/04 03:05:09;;;;;;;8.80;2.63;;;;;;;;;;4690808;30;20057;-93
2023/10/04 03:07:37;;;;;;;8.70;3.03;;;;;;;;;;4690311;30;20055;-92
2023/10/04 03:10:04;;;;;;;11.48;2.90;;;;;;;;;;4676207;30;20056;-94
2023/10/04 03:12:30;;;;;;;13.75;2.55;;;;;;;;;;4675170;30;20140;-90
2023/10/04 03:14:57;;;;;;;9.05;2.53;;;;;;;;;;4691862;30;20056;-91
2023/10/04 03:17:23;;;;;;;7.10;2.97;;;;;;;;;;4736876;30;20102;-94
2023/10/04 03:19:49;;;;;;;8.57;2.97;;;;;;;;;;4738892;30;20617;-94
2023/10/04 03:22:22;;;;;;;8.95;2.58;;;;;;;;;;4739613;30;20061;-95
2023/10/04 03:24:51;;;;;;;13.60;2.85;;;;;;;;;;4697685;30;20113;-96
2023/10/04 03:27:21;;;;;;;10.75;2.88;;;;;;;;;;4692374;30;20504;-94
2023/10/04 03:29:48;;;;;;;9.43;3.13;;;;;;;;;;4707229;30;20123;-96
2023/10/04 03:32:15;;;;;;;15.18;3.88;;;;;;;;;;4707171;30;20057;-96
2023/10/04 03:34:41;;;;;;;7.20;2.55;;;;;;;;;;4708304;30;20469;-96
2023/10/04 03:37:08;;;;;;;14.82;3.20;;;;;;;;;;4708316;30;20091;-92
2023/10/04 03:39:38;;;;;;;6.78;2.22;;;;;;;;;;4737502;30;20085;-94
2023/10/04 03:42:05;;;;;;;6.97;2.72;;;;;;;;;;4721241;30;20146;-96
2023/10/04 03:44:31;;;;;;;10.50;2.70;;;;;;;;;;4708353;30;20116;-95
2023/10/04 03:46:57;;;;;;;8.25;2.60;;;;;;;;;;4737347;30;20052;-95
2023/10/04 03:49:24;;;;;;;7.80;2.53;;;;;;;;;;4706802;30;20048;-95
2023/10/04 03:51:52;;;;;;;6.43;2.47;;;;;;;;;;4735673;30;20056;-94
2023/10/04 03:54:19;;;;;;;11.65;2.80;;;;;;;;;;4718996;30;20068;-94
2023/10/04 03:56:45;;;;;;;9.73;2.80;;;;;;;;;;4703423;30;20514;-95
2023/10/04 03:59:12;;;;;;;11.73;2.90;;;;;;;;;;4718771;30;20049;-96
2023/10/04 04:01:38;;;;;;;8.48;2.95;;;;;;;;;;4719179;30;20531;-95
2023/10/04 04:04:08;;;;;;;7.20;3.50;;;;;;;;;;4718023;30;20072;-93
2023/10/04 04:06:34;;;;;;;9.05;3.28;;;;;;;;;;4736799;30;20053;-95
2023/10/04 04:09:06;;;;;;;20.05;2.97;;;;;;;;;;4705493;30;20111;-95
2023/10/04 04:11:32;;;;;;;7.03;2.60;;;;;;;;;;4719004;30;20057;-96
2023/10/04 04:14:01;;;;;;;6.93;2.78;;;;;;;;;;4719206;30;20072;-95
2023/10/04 04:16:27;;;;;;;8.40;2.47;;;;;;;;;;4690378;30;20053;-95
2023/10/04 04:18:55;;;;;;;9.85;2.95;;;;;;;;;;4718608;30;20052;-96
2023/10/04 04:21:25;;;;;;;8.75;2.95;;;;;;;;;;4736150;30;20127;-93
2023/10/04 04:23:51;;;;;;;6.70;2.55;;;;;;;;;;4720487;30;20110;-96
2023/10/04 04:26:49;;;;;;;12.93;3.38;;;;;;;;;;4735161;30;20092;-95
2023/10/04 04:29:27;;;;;;;7.85;2.47;;;;;;;;;;4718705;30;20095;-96
2023/10/04 04:31:53;;;;;;;11.65;2.60;;;;;;;;;;4717856;30;20084;-95
2023/10/04 04:34:19;;;;;;;14.73;3.83;;;;;;;;;;4718959;30;20144;-93
2023/10/04 04:36:46;;;;;;;8.65;2.17;;;;;;;;;;4701697;30;20083;-95
2023/10/04 04:39:16;;;;;;;6.25;2.42;;;;;;;;;;4707336;30;20066;-95
2023/10/04 04:41:42;;;;;;;7.93;3.03;;;;;;;;;;4719755;30;20059;-90
2023/10/04 04:44:19;;;;;;;16.08;3.38;;;;;;;;;;4720223;30;20064;-96
2023/10/04 04:46:47;;;;;;;12.50;2.65;;;;;;;;;;4710333;30;20163;-96
2023/10/04 04:49:13;;;;;;;9.35;3.28;;;;;;;;;;4718722;30;20067;-92
2023/10/04 04:51:39;;;;;;;9.75;2.70;;;;;;;;;;4689160;30;20048;-95
2023/10/04 04:54:12;;;;;;;12.02;3.13;;;;;;;;;;4704487;30;20124;-93
2023/10/04 04:56:39;;;;;;;11.18;3.10;;;;;;;;;;4720257;30;20048;-93
2023/10/04 05:02:51;;;;;;;18.95;4.13;;;;;;;;;;4703480;30;20044;-95
2023/10/04 05:05:37;;;;;;;7.88;3.22;;;;;;;;;;4709862;30;20061;-95
2023/10/04 05:08:04;;;;;;;8.55;3.03;;;;;;;;;;4707932;30;20059;-94
2023/10/04 05:10:39;;;;;;;6.47;2.65;;;;;;;;;;4706771;30;20522;-94
2023/10/04 05:13:13;;;;;;;14.70;3.00;;;;;;;;;;4700699;30;20072;-96
2023/10/04 05:15:42;;;;;;;20.25;3.22;;;;;;;;;;4721210;30;20116;-96
2023/10/04 05:41:11;;;;;;;9.10;3.35;;;;;;;;;;4684193;30;20128;-94
2023/10/04 05:43:38;;;;;;;8.98;2.60;;;;;;;;;;4670226;30;20481;-94
2023/10/04 05:46:06;;;;;;;15.20;3.67;;;;;;;;;;4701462;30;20092;-95
2023/10/04 05:48:34;;;;;;;22.02;3.33;;;;;;;;;;4707455;30;20049;-91
2023/10/04 05:51:00;;;;;;;9.63;2.78;;;;;;;;;;4721530;30;20144;-92
2023/10/04 05:53:27;;;;;;;8.88;3.22;;;;;;;;;;4690151;30;20049;-92
2023/10/04 05:55:54;;;;;;;14.68;3.50;;;;;;;;;;4674932;30;20123;-92
2023/10/04 05:58:22;;;;;;;7.38;2.67;;;;;;;;;;4689296;30;20049;-93
2023/10/04 06:00:56;;;;;;;12.63;3.58;;;;;;;;;;4691220;30;20520;-93
2023/10/04 06:03:22;;;;;;;7.75;2.95;;;;;;;;;;4708348;30;20057;-92
2023/10/04 06:05:50;;;;;;;11.43;3.08;;;;;;;;;;4721335;30;20659;-91
2023/10/04 06:08:20;;;;;;;10.35;3.03;;;;;;;;;;4693392;30;20106;-95
2023/10/04 06:10:53;;;;;;;8.60;3.00;;;;;;;;;;4705268;30;20061;-94
2023/10/04 06:15:00;;;;;;;11.32;3.17;;;;;;;;;;5145112;27;1387801;-91
2023/10/04 06:17:29;;;;;;;8.48;3.40;;;;;;;;;;5139393;27;20146;-92
2023/10/04 06:19:55;;;;;;;12.68;3.80;;;;;;;;;;5138969;27;20039;-93
2023/10/04 06:22:21;;;;;;;13.68;4.25;;;;;;;;;;5139531;27;20042;-92
2023/10/04 06:25:03;;;;;;;20.25;4.40;;;;;;;;;;5140546;27;20046;-93
2023/10/04 06:27:29;;;;;;;10.45;2.88;;;;;;;;;;5139151;27;20042;-95
2023/10/04 06:29:55;;;;;;;10.15;2.65;;;;;;;;;;5122359;27;20038;-94
2023/10/04 06:33:00;;;;;;;;;;;;;;;;;;;;;
2023/10/04 06:35:46;;;;;;;14.57;3.95;;;;;;;;;;5143638;27;20131;-95
2023/10/04 06:38:13;;;;;;;10.48;3.08;;;;;;;;;;5137894;27;20074;-95
2023/10/04 06:40:39;;;;;;;9.18;3.85;;;;;;;;;;5155098;27;20042;-94
2023/10/04 06:43:08;;;;;;;10.30;3.90;;;;;;;;;;5115392;27;20035;-93
2023/10/04 06:45:36;;;;;;;13.73;3.60;;;;;;;;;;5137230;27;20043;-94
2023/10/04 06:48:06;;;;;;;11.30;3.00;;;;;;;;;;5128813;27;20059;-88
2023/10/04 06:50:35;;;;;;;9.18;3.00;;;;;;;;;;5129445;27;20038;-94
2023/10/04 06:53:03;;;;;;;8.25;3.67;;;12.30;9.90;;;;;;5119088;27;20273;-91
2023/10/04 06:55:31;;;;;;;9.35;4.07;;;12.50;7.70;;;;;;5127417;27;20063;-91
2023/10/04 06:57:57;;;;;;;16.60;3.45;;;;;;;;;;5128331;27;20048;-91
2023/10/04 07:00:26;;;;;;;14.23;3.60;;;;;;;;;;5126013;27;20058;-88
2023/10/04 07:02:54;;;;;;;10.43;3.67;;;;;;;;;;5122964;27;20053;-90
2023/10/04 07:05:23;;;;;;;11.23;4.00;;;12.40;10.40;;;;;;5126038;27;20042;-94
2023/10/04 07:07:54;;;;;;;13.02;3.30;;;;;;;;;;5114335;27;20063;-94
2023/10/04 07:10:21;;;;;;;19.10;4.00;;;;;;;;;;5102164;27;20071;-90
2023/10/04 07:12:47;;;;;;;12.32;4.13;;;;;;;;;;5096453;27;20243;-90
2023/10/04 07:15:14;;;;;;;10.52;4.35;;;;;;;;;;5113446;27;20143;-87
2023/10/04 07:17:41;;;;;;;9.65;3.75;;;;;;;;;;5097019;27;20046;-86
2023/10/04 07:20:13;;;;;;;14.75;3.75;;;12.60;7.70;;;;;;5116809;27;20050;-88
2023/10/04 07:22:40;;;;;;;15.52;4.22;;;;;;;;;;5100646;27;20039;-84
2023/10/04 07:25:07;;;;;;;8.88;3.55;;;;;;;;;;5081058;27;20051;-85
2023/10/04 07:27:34;;;;;;;12.93;3.55;;;;;;;;;;5083776;27;20038;-89
2023/10/04 07:30:01;;;;;;;11.25;3.97;;;;;;;;;;5071613;27;20053;-94
2023/10/04 07:32:28;;;;;;;13.75;4.28;;;;;;;;;;5087732;27;20042;-86
2023/10/04 07:34:54;;;;;;;14.55;4.40;;;;;;;;;;5083850;27;20142;-92
2023/10/04 07:37:20;;;;;;;8.85;3.10;;;;;;;;;;5079189;27;20305;-89
2023/10/04 07:39:46;;;;;;;8.75;3.72;;;;;;;;;;5095029;27;20548;-87
2023/10/04 07:42:16;;;;;;;12.18;3.10;;;;;;;;;;5080666;27;20453;-86
2023/10/04 07:44:42;;;;;;;17.52;3.95;;;;;;;;;;5096614;27;20534;-85
2023/10/04 07:47:08;;;;;;;8.15;3.72;;;;;;;;;;5080658;27;20448;-86
2023/10/04 07:49:34;;;;;;;17.20;4.72;;;;;;;;;;5084367;27;20034;-90
2023/10/04 07:52:03;;;;;;;9.60;3.42;;;;;;;;;;5084999;27;20052;-86
2023/10/04 07:54:29;;;;;;;11.07;3.92;;;;;;;;;;5099779;27;20320;-89
2023/10/04 07:56:55;;;;;;;11.77;3.28;;;;;;;;;;5080169;27;20058;-85
2023/10/04 07:59:21;;;;;;;6.18;3.33;;;;;;;;;;5083536;27;20043;-86
2023/10/04 08:01:47;;;;;;;10.85;4.18;;;;;;;;;;5085686;27;20035;-86
2023/10/04 08:04:13;;;;;;;9.82;4.18;;;;;;;;;;5066563;27;20070;-85
2023/10/04 08:06:40;;;;;;;9.27;3.80;;;;;;;;;;5092346;27;20174;-93
2023/10/04 08:09:06;;;;;;;12.55;4.35;;;;;;;;;;5099379;27;20118;-87
2023/10/04 08:11:33;;;;;;;15.98;4.22;;;;;;;;;;5069671;27;20120;-86
2023/10/04 08:14:07;;;;;;;16.75;4.47;;;;;;;;;;5086064;27;20055;-92
2023/10/04 08:16:33;;;;;;;;;;;;;;;;;;5084215;27;20050;-91
2023/10/04 08:19:01;;;;;;;18.48;4.65;;;;;;;;;;5084456;27;20006;-94
2023/10/04 08:21:28;;;;;;;10.88;3.58;;;;;;;;;;5084577;27;20217;-86
2023/10/04 08:23:55;;;;;;;13.18;3.90;;;;;;;;;;5100895;27;20044;-92
2023/10/04 08:26:25;;;;;;;13.00;4.20;;;;;;;;;;5089108;27;20039;-92
2023/10/04 08:28:51;;;;;;;7.88;3.75;;;;;;;;;;5087096;27;20083;-88
2023/10/04 08:31:18;;;;;;;11.98;4.68;;;;;;;;;;5085296;27;20044;-90
2023/10/04 08:33:44;;;;;;;12.88;4.47;;;;;;;;;;5087521;27;20051;-88
2023/10/04 08:36:14;;;;;;;10.10;4.03;;;;;;;;;;5085968;28;20843;-89
2023/10/04 08:38:44;;;;;;;9.10;3.88;;;;;;;;;;5105287;27;20046;-95
2023/10/04 08:41:22;;;;;;;11.20;5.07;;;;;;;;;;5091753;27;20085;-94
2023/10/04 08:43:49;;;;;;;9.00;3.95;;;;;;;;;;5074302;27;20042;-93
2023/10/04 08:46:21;;;;;;;11.10;3.35;;;;;;;;;;5091612;27;20071;-92
2023/10/04 08:48:53;;;;;;;12.38;4.13;;;;;;;;;;5084314;27;20047;-92
2023/10/04 08:51:27;;;;;;;12.05;4.20;;;;;;;;;;5086803;27;20078;-95
2023/10/04 08:54:12;;;;;;;12.20;3.95;;;;;;;;;;5089588;27;20047;-96
2023/10/04 08:57:04;;;;;;;8.35;4.15;;;;;;;;;;5088716;27;20043;-91
2023/10/04 08:59:30;;;;;;;10.82;4.35;;;;;;;;;;5105601;27;20495;-92
2023/10/04 09:01:57;;;;;;;20.13;4.82;;;;;;;;;;5099685;27;20074;-88
2023/10/04 09:04:24;;;;;;;10.07;3.72;;;;;;;;;;5105880;27;20042;-86
2023/10/04 09:06:51;;;;;;;8.02;3.70;;;;;;;;;;5122375;27;20070;-91
2023/10/04 09:09:18;;;;;;;13.13;4.15;;;;;;;;;;5115554;27;20050;-90
2023/10/04 09:11:45;;;;;;;8.30;3.20;;;;;;;;;;5084693;27;20451;-91
2023/10/04 09:14:11;;;;;;;11.93;3.90;;;;;;;;;;5083900;27;20047;-90
2023/10/04 09:16:37;;;;;;;12.68;4.53;;;;;;;;;;5084619;27;20043;-95
2023/10/04 09:19:18;;;;;;;12.35;3.97;;;15.90;1.00;;;;;;5104512;27;20081;-88
2023/10/04 09:21:45;;;;;;;14.00;4.72;;;;;;;;;;5120733;27;20043;-92
2023/10/04 09:24:15;;;;;;;11.15;4.43;;;;;;;;;;5116885;27;20058;-94
2023/10/04 09:26:50;;;;;;;15.60;4.07;;;;;;;;;;5119483;27;20073;-84
2023/10/04 09:29:28;;;;;;;11.35;3.95;;;;;;;;;;5078668;27;20050;-88
2023/10/04 09:31:55;;;;;;;18.38;4.38;;;;;;;;;;5103869;27;20403;-91
2023/10/04 09:34:24;;;;;;;10.50;3.97;;;;;;;;;;5088139;27;20050;-92
2023/10/04 09:36:54;;;;;;;11.55;4.40;;;;;;;;;;5104834;27;20117;-93
2023/10/04 09:39:32;;;;;;;12.90;3.85;;;;;;;;;;5102437;27;20051;-94
2023/10/04 09:42:02;;;;;;;10.13;4.07;;;15.80;1.00;;;;;;5105072;27;20053;-90
2023/10/04 09:44:29;;;;;;;5.53;3.20;;;;;;;;;;5105174;27;20051;-93
2023/10/04 09:46:56;;;;;;;8.85;3.60;;;;;;;;;;5104359;27;20127;-91
2023/10/04 09:49:28;;;;;;;11.48;4.57;;;;;;;;;;5080870;28;20051;-95
2023/10/04 09:51:55;;;;;;;10.60;4.25;;;;;;;;;;5118552;27;20057;-89
2023/10/04 09:54:22;;;;;;;11.98;3.63;;;;;;;;;;5103798;27;20091;-93
2023/10/04 09:56:52;;;;;;;9.48;3.92;;;;;;;;;;5104384;27;20031;-89
2023/10/04 09:59:20;;;;;;;12.63;4.55;;;16.40;1.00;;;;;;5087131;27;20043;-85
2023/10/04 10:01:52;;;;;;;9.20;4.22;;;;;;;;;;5122990;27;20043;-94
2023/10/04 10:04:22;;;;;;;14.05;4.30;;;;;;;;;;5103580;28;20093;-92
2023/10/04 10:06:54;;;;;;;11.35;3.00;;;;;;;;;;5104982;27;20050;-88
2023/10/04 10:09:21;;;;;;;13.07;3.22;;;;;;;;;;5084198;27;20552;-87
2023/10/04 10:11:52;;;;;;;11.90;3.97;;;;;;;;;;5105762;28;20456;-91
2023/10/04 10:14:19;;;;;;;8.90;4.03;;;;;;;;;;5082526;28;20051;-87
2023/10/04 10:16:45;;;;;;;11.52;3.65;;;;;;;;;;5083009;28;20052;-89
2023/10/04 10:19:12;;;;;;;11.65;3.97;;;;;;;;;;5081648;28;20681;-86
2023/10/04 10:22:02;;;;;;;7.97;3.55;;;16.50;1.00;;;;;;5099907;28;20043;-87
2023/10/04 10:24:29;;;;;;;10.77;3.97;;;;;;;;;;5102262;28;20844;-89
2023/10/04 10:27:02;;;;;;;11.63;4.20;;;;;;;;;;5086463;28;20051;-93
2023/10/04 10:29:31;;;;;;;12.98;3.92;;;;;;;;;;5106760;28;20043;-90
2023/10/04 10:31:57;;;;;;;7.88;3.85;;;;;;;;;;5086393;28;20036;-91
2023/10/04 10:34:23;;;;;;;8.50;3.85;;;;;;;;;;5100024;28;20097;-91
2023/10/04 10:37:08;;;;;;;9.05;4.60;;;;;;;;;;5085811;28;20540;-92
2023/10/04 10:39:44;;;;;;;12.52;4.40;;;;;;;;;;5082002;28;20071;-85
2023/10/04 10:42:11;;;;;;;12.80;4.43;;;;;;;;;;5099255;28;20046;-89
2023/10/04 10:44:39;;;;;;;11.07;4.35;;;;;;;;;;5097920;28;20112;-86
2023/10/04 10:47:07;;;;;;;9.18;3.75;;;;;;;;;;5082726;28;20039;-83
2023/10/04 10:49:44;;;;;;;24.20;4.63;;;16.60;1.00;;;;;;5099832;28;20126;-85
2023/10/04 10:52:20;;;;;;;8.90;4.25;;;;;;;;;;5101400;28;20074;-86
2023/10/04 10:54:46;;;;;;;12.52;3.95;;;;;;;;;;5095925;28;20036;-89
2023/10/04 10:57:13;;;;;;;8.30;3.90;;;;;;;;;;5084857;28;20120;-88
2023/10/04 10:59:40;;;;;;;15.10;5.65;;;;;;;;;;5105197;28;20109;-83
2023/10/04 11:02:06;;;;;;;9.75;4.45;;;;;;;;;;5091733;28;20042;-87
2023/10/04 11:04:34;;;;;;;9.00;4.43;;;;;;;;;;5104109;28;20530;-86
2023/10/04 11:07:00;;;;;;;17.77;3.95;;;;;;;;;;5106419;27;20444;-87
2023/10/04 11:09:29;;;;;;;16.95;3.92;;;;;;;;;;5083150;28;20475;-86
2023/10/04 11:11:56;;;;;;;14.38;5.25;;;;;;;;;;5106228;28;20089;-87
2023/10/04 11:14:23;;;;;;;10.25;3.75;;;;;;;;;;5076988;28;20060;-84
2023/10/04 11:16:51;;;;;;;10.88;4.38;;;;;;;;;;5085503;28;20047;-83
2023/10/04 11:19:17;;;;;;;17.88;4.80;;;;;;;;;;5067196;28;20457;-86
2023/10/04 11:21:45;;;;;;;14.35;3.85;;;16.70;1.00;;;;;;5050237;28;20047;-84
2023/10/04 11:24:12;;;;;;;19.25;4.45;;;;;;;;;;5084775;28;20135;-84
2023/10/04 11:26:44;;;;;;;12.82;4.55;;;16.70;1.00;;;;;;5068608;28;20040;-85
2023/10/04 11:29:10;;;;;;;9.18;4.07;;;;;;;;;;5066902;28;20081;-84
2023/10/04 11:31:37;;;;;;;13.57;4.15;;;;;;;;;;5050953;28;20053;-84
2023/10/04 11:34:04;;;;;;;17.20;5.10;;;;;;;;;;5085568;28;20486;-85
2023/10/04 11:36:34;;;;;;;15.85;4.22;;;;;;;;;;5067697;28;20040;-86
2023/10/04 11:39:00;;;;;;;10.80;4.40;;;;;;;;;;5064740;28;20444;-83
2023/10/04 11:41:29;;;;;;;11.88;4.32;;;;;;;;;;5067887;28;20059;-84
2023/10/04 11:44:02;;;;;;;10.00;4.13;;;;;;;;;;5083697;28;20055;-89
2023/10/04 11:46:29;;;;;;;15.48;4.60;;;;;;;;;;5050825;28;20634;-84
2023/10/04 11:49:11;;;;;;;10.80;3.50;;;;;;;;;;5068382;28;20536;-85
2023/10/04 11:51:41;;;;;;;10.73;4.90;;;16.80;1.00;;;;;;5067292;28;20040;-85
2023/10/04 11:54:07;;;;;;;8.82;3.47;;;;;;;;;;5067962;28;20036;-85
2023/10/04 11:56:45;;;;;;;10.80;4.40;;;;;;;;;;5067677;28;20416;-86
2023/10/04 11:59:13;;;;;;;9.45;3.53;;;;;;;;;;5056490;28;20040;-86
2023/10/04 12:01:46;;;;;;;9.95;4.35;;;;;;;;;;5100125;28;20044;-85
2023/10/04 12:04:14;;;;;;;10.60;4.27;;;16.80;1.00;;;;;;5051198;28;20074;-87
2023/10/04 12:06:40;;;;;;;9.00;3.92;;;;;;;;;;5066435;28;20032;-85
2023/10/04 12:09:08;;;;;;;14.43;4.55;;;;;;;;;;5081269;28;20502;-88
2023/10/04 12:11:35;;;;;;;9.93;3.65;;;;;;;;;;5069521;28;20051;-84
2023/10/04 12:14:06;;;;;;;9.00;3.90;;;;;;;;;;5076901;28;20087;-91
2023/10/04 12:16:33;;;;;;;13.95;3.97;;;;;;;;;;5104490;28;20416;-85
2023/10/04 12:19:01;;;;;;;13.85;3.22;;;;;;;;;;5104858;28;20445;-83
2023/10/04 12:21:27;;;;;;;8.50;3.28;;;;;;;;;;5103196;28;20512;-82
2023/10/04 12:23:54;;;;;;;10.90;2.85;;;;;;;;;;5099630;27;20040;-82
2023/10/04 12:26:20;;;;;;;9.23;3.97;;;;;;;;;;5102887;28;20118;-88
2023/10/04 12:28:51;;;;;;;11.45;3.55;;;;;;;;;;5105912;28;20039;-88
2023/10/04 12:31:17;;;;;;;10.35;2.65;;;;;;;;;;5084460;28;20047;-87
2023/10/04 12:33:43;;;;;;;8.02;3.10;;;;;;;;;;5101793;28;20047;-89
2023/10/04 12:36:10;;;;;;;8.02;2.67;;;;;;;;;;5085370;28;20040;-84
2023/10/04 12:38:36;;;;;;;9.35;3.20;;;;;;;;;;5085038;28;20046;-89
2023/10/04 12:41:03;;;;;;;16.65;2.85;;;;;;;;;;5086869;28;20499;-86
2023/10/04 12:43:29;;;;;;;6.85;2.72;;;;;;;;;;5085048;28;20106;-82
2023/10/04 12:45:55;;;;;;;8.35;2.88;;;;;;;;;;5084739;28;20040;-89
2023/10/04 12:48:22;;;;;;;6.47;2.85;;;;;;;;;;5103415;28;20039;-89
2023/10/04 12:50:48;;;;;;;9.18;3.03;;;;;;;;;;5066471;28;20495;-88
2023/10/04 12:53:14;;;;;;;9.50;2.55;;;;;;;;;;5104364;27;20039;-89
2023/10/04 12:55:41;;;;;;;6.88;2.72;;;;;;;;;;5103892;28;20436;-89
2023/10/04 12:58:07;;;;;;;8.18;3.15;;;;;;;;;;5102709;28;20404;-88
2023/10/04 13:00:34;;;;;;;11.10;3.38;;;;;;;;;;5099898;28;20040;-84
2023/10/04 13:03:00;;;;;;;13.02;3.72;;;;;;;;;;5076399;27;20042;-85
2023/10/04 13:05:27;;;;;;;8.45;2.35;;;;;;;;;;5077956;28;20047;-90
2023/10/04 13:07:56;;;;;;;7.85;2.40;;;;;;;;;;5095855;28;20038;-85
2023/10/04 13:10:23;;;;;;;9.00;3.25;;;;;;;;;;5099846;27;20040;-86
2023/10/04 13:12:49;;;;;;;5.50;2.10;;;;;;;;;;5102681;27;20059;-84
2023/10/04 13:15:16;;;;;;;9.07;2.50;;;;;;;;;;5085642;28;20055;-85
2023/10/04 13:17:43;;;;;;;8.07;2.13;;;;;;;;;;5065326;28;20051;-85
2023/10/04 13:20:18;;;;;;;11.38;3.13;;;;;;;;;;5065766;28;20069;-83
2023/10/04 13:22:45;;;;;;;7.35;2.90;;;;;;;;;;5067489;28;20476;-86
2023/10/04 13:25:12;;;;;;;6.47;2.63;;;;;;;;;;5068536;28;20039;-88
2023/10/04 13:27:38;;;;;;;7.18;2.17;;;;;;;;;;5070250;28;20177;-88
2023/10/04 13:30:06;;;;;;;5.10;1.95;;;;;;;;;;5049435;28;20035;-85
2023/10/04 13:32:33;;;;;;;5.63;2.15;;;;;;;;;;5081734;28;20079;-85
2023/10/04 13:35:01;;;;;;;6.80;1.88;;;;;;;;;;5080923;28;20048;-83
2023/10/04 13:37:27;;;;;;;10.00;3.20;;;;;;;;;;5083773;28;21637;-90
2023/10/04 13:39:55;;;;;;;4.72;2.45;;;;;;;;;;5082931;28;20421;-90
2023/10/04 13:42:22;;;;;;;5.00;2.38;;;;;;;;;;5066665;28;20131;-92
2023/10/04 13:44:48;;;;;;;7.10;2.90;;;;;;;;;;5066530;28;20040;-85
2023/10/04 13:47:41;;;;;;;7.78;2.35;;;;;;;;;;5085163;28;20135;-90
2023/10/04 13:50:15;;;;;;;3.95;2.00;;;;;;;;;;5085849;28;21437;-92
2023/10/04 13:53:09;;;;;;;5.03;2.30;;;;;;;;;;5071723;28;20044;-84
2023/10/04 13:55:56;;;;;;;;;;;;;;;;;;;;;
2023/10/04 14:01:54;;;;;;;8.30;2.50;;;;;;;;;;5062012;28;20123;-87
2023/10/04 14:07:24;;;;;;;17.45;4.18;;;;;;;;;;5085093;28;19977;-92
2023/10/04 14:10:07;;;;;;;;;;;;;;;;;;;;;
2023/10/04 14:13:11;;;;;;;9.10;3.80;;;;;;;;;;5071833;28;20048;-93
2023/10/04 14:15:40;;;;;;;12.20;2.72;;;;;;;;;;5070402;28;20530;-90
2023/10/04 14:18:47;;;;;;;6.55;2.58;;;;;;;;;;5088866;28;20389;-90
2023/10/04 14:24:42;;;;;;;6.05;2.05;;;;;;;;;;5073726;28;19919;-90
2023/10/04 14:27:26;;;;;;;11.27;3.92;;;;;;;;;;5039525;28;20053;-87
2023/10/04 14:29:54;;;;;;;6.57;2.10;;;;;;;;;;5061035;28;20129;-92
2023/10/04 14:32:20;;;;;;;7.80;2.88;;;;;;;;;;5079474;28;20036;-90
2023/10/04 14:34:47;;;;;;;4.22;2.20;;;;;;;;;;5059824;28;20052;-88
2023/10/04 14:37:14;;;;;;;7.90;2.33;;;;;;;;;;5067557;28;20077;-88
2023/10/04 14:39:40;;;;;;;7.75;2.28;;;;;;;;;;5084330;28;20044;-89
2023/10/04 14:42:08;;;;;;;6.32;2.45;;;;;;;;;;5069070;28;20403;-88
2023/10/04 14:44:35;;;;;;;9.20;2.70;;;;;;;;;;5069908;28;20072;-89
2023/10/04 14:47:01;;;;;;;10.07;2.30;;;;;;;;;;5052057;28;20032;-90
2023/10/04 14:49:27;;;;;;;5.30;2.63;;;;;;;;;;5068143;28;20068;-91
2023/10/04 14:51:53;;;;;;;4.50;2.42;;;;;;;;;;5049825;28;20039;-92
2023/10/04 14:54:19;;;;;;;21.40;3.33;;;;;;;;;;5050245;28;20044;-92
2023/10/04 14:56:46;;;;;;;4.57;1.60;;;;;;;;;;5067032;28;20032;-85
2023/10/04 14:59:12;;;;;;;8.50;2.03;;;;;;;;;;5083726;28;20048;-88
2023/10/04 15:01:41;;;;;;;5.05;2.03;;;;;;;;;;5089982;28;20488;-83
2023/10/04 15:04:07;;;;;;;5.90;2.05;;;;;;;;;;5088025;28;20074;-85
2023/10/04 15:06:33;;;;;;;6.40;2.97;;;;;;;;;;5084041;28;20040;-83
2023/10/04 15:08:59;;;;;;;9.88;2.35;;;;;;;;;;5084646;28;20382;-90
2023/10/04 15:11:29;;;;;;;4.07;1.52;;;;;;;;;;5082917;28;20052;-84
2023/10/04 15:13:57;;;;;;;3.85;1.50;;;;;;;;;;5087472;28;20536;-91
2023/10/04 15:16:24;;;;;;;5.30;1.77;;;;;;;;;;5078210;28;20056;-87
2023/10/04 15:18:50;;;;;;;5.20;1.20;;;;;;;;;;5103328;28;20411;-85
2023/10/04 15:21:19;;;;;;;4.32;1.27;;;;;;;;;;5079143;28;20118;-90
2023/10/04 15:23:45;;;;;;;5.00;1.30;;;;;;;;;;5103529;28;20135;-89
2023/10/04 15:26:12;;;;;;;5.78;1.40;;;;;;;;;;5101205;27;20051;-92
2023/10/04 15:28:43;;;;;;;4.25;1.42;;;;;;;;;;5083576;28;20547;-89